Time;durP1;ratioP1;P1;durP2;ratioP2;P2;SDS_P1;SDS_P2;PMS_P1;PMS_P2;Temp;Humidity;BMP_temperature;BMP_pressure;BME280_temperature;BME280_humidity;BME280_pressure;Samples;Min_cycle;Max_cycle;Signal;HPM_P1;HPM_P2
2021/11/29 00:00:54;;;;;;;45.83;24.77;;;3.60;99.90;;;;;;5052948;28;21013;-71
2021/11/29 00:03:20;;;;;;;47.77;26.97;;;3.70;99.90;;;;;;5053664;28;20546;-70
2021/11/29 00:05:46;;;;;;;46.37;26.40;;;3.80;99.90;;;;;;5053084;28;20412;-70
2021/11/29 00:08:11;;;;;;;47.23;26.33;;;3.50;99.90;;;;;;5053629;28;20410;-71
2021/11/29 00:10:37;;;;;;;49.53;27.20;;;3.30;99.90;;;;;;5052784;28;20175;-70
2021/11/29 00:13:03;;;;;;;43.30;26.27;;;3.20;99.90;;;;;;5052435;28;20213;-71
2021/11/29 00:15:30;;;;;;;42.67;24.60;;;3.10;99.90;;;;;;5052954;28;20263;-71
2021/11/29 00:17:55;;;;;;;41.43;25.90;;;3.10;99.90;;;;;;5053896;28;20833;-70
2021/11/29 00:20:21;;;;;;;42.07;23.30;;;3.20;99.90;;;;;;5053466;28;20464;-69
2021/11/29 00:22:47;;;;;;;35.00;21.57;;;3.30;99.90;;;;;;5053954;28;20207;-70
2021/11/29 00:25:13;;;;;;;40.63;24.07;;;3.40;99.90;;;;;;5046832;28;20177;-70
2021/11/29 00:27:39;;;;;;;28.67;19.90;;;3.50;99.90;;;;;;5052755;28;20411;-70
2021/11/29 00:30:07;;;;;;;33.03;20.83;;;3.50;99.90;;;;;;5053565;28;20420;-70
2021/11/29 00:32:32;;;;;;;29.10;19.03;;;3.60;99.90;;;;;;5066116;22;20311;-70
2021/11/29 00:34:58;;;;;;;28.37;18.80;;;3.50;99.90;;;;;;5032686;28;21028;-71
2021/11/29 00:37:24;;;;;;;28.00;19.63;;;3.30;99.90;;;;;;5030654;28;20663;-71
2021/11/29 00:39:51;;;;;;;31.23;19.50;;;3.30;99.90;;;;;;5013428;28;20446;-71
2021/11/29 00:42:17;;;;;;;29.07;18.33;;;3.20;99.90;;;;;;5031401;28;20459;-70
2021/11/29 00:44:43;;;;;;;28.33;19.23;;;3.30;99.90;;;;;;5031734;28;20943;-71
2021/11/29 00:47:08;;;;;;;32.80;19.17;;;3.40;99.90;;;;;;5031424;28;20409;-71
2021/11/29 00:49:34;;;;;;;38.20;22.30;;;3.50;99.90;;;;;;5032086;28;20662;-71
2021/11/29 00:52:00;;;;;;;31.70;18.93;;;3.50;99.90;;;;;;5031409;28;20199;-71
2021/11/29 00:54:25;;;;;;;34.33;20.00;;;3.50;99.90;;;;;;5033170;28;20221;-70
2021/11/29 00:56:51;;;;;;;32.50;18.80;;;3.40;99.90;;;;;;5015872;28;20179;-70
2021/11/29 00:59:16;;;;;;;36.83;20.60;;;3.20;99.90;;;;;;5022858;28;20208;-71
2021/11/29 01:01:44;;;;;;;36.13;20.70;;;3.10;99.90;;;;;;5026477;28;20183;-71
2021/11/29 01:04:10;;;;;;;31.87;19.53;;;3.00;99.90;;;;;;5023698;28;20161;-71
2021/11/29 01:06:35;;;;;;;32.33;19.60;;;3.10;99.90;;;;;;5016576;28;20402;-70
2021/11/29 01:09:02;;;;;;;37.10;19.63;;;3.10;99.90;;;;;;5015804;28;20318;-70
2021/11/29 01:11:27;;;;;;;32.17;18.20;;;3.10;99.90;;;;;;5022320;28;20183;-71
2021/11/29 01:13:53;;;;;;;29.97;19.53;;;3.00;99.90;;;;;;5036057;28;20484;-71
2021/11/29 01:16:19;;;;;;;29.90;18.50;;;3.00;99.90;;;;;;5035462;28;20190;-70
2021/11/29 01:18:44;;;;;;;25.50;16.70;;;3.10;99.90;;;;;;5035306;28;20203;-70
2021/11/29 01:21:10;;;;;;;26.00;17.00;;;3.10;99.90;;;;;;5035235;28;20409;-70
2021/11/29 01:23:35;;;;;;;25.23;16.00;;;3.10;99.90;;;;;;5034826;28;20187;-70
2021/11/29 01:26:01;;;;;;;24.63;16.57;;;3.10;99.90;;;;;;5016637;28;20667;-70
2021/11/29 01:28:27;;;;;;;26.33;17.07;;;3.10;99.90;;;;;;5022738;28;20176;-70
2021/11/29 01:30:52;;;;;;;25.90;17.07;;;3.10;99.90;;;;;;5014591;28;20507;-70
2021/11/29 01:33:18;;;;;;;23.90;15.33;;;3.10;99.90;;;;;;5014490;28;20212;-71
2021/11/29 01:35:44;;;;;;;20.43;14.53;;;3.10;99.90;;;;;;5014702;28;20175;-70
2021/11/29 01:38:09;;;;;;;22.93;15.83;;;3.10;99.90;;;;;;5014320;28;20181;-70
2021/11/29 01:40:36;;;;;;;22.27;15.83;;;3.10;99.90;;;;;;5014533;28;20206;-70
2021/11/29 01:43:09;;;;;;;20.53;14.77;;;3.10;99.90;;;;;;5014234;28;20188;-70
2021/11/29 01:45:39;;;;;;;19.30;14.43;;;3.10;99.90;;;;;;5029595;28;21162;-70
2021/11/29 01:48:05;;;;;;;20.17;14.43;;;3.10;99.90;;;;;;5015533;28;20796;-70
2021/11/29 01:50:31;;;;;;;20.73;13.57;;;3.10;99.90;;;;;;5033884;28;20417;-71
2021/11/29 01:52:56;;;;;;;19.23;14.17;;;3.10;99.90;;;;;;5033648;28;20435;-71
2021/11/29 01:55:22;;;;;;;16.43;11.90;;;3.20;99.90;;;;;;5015890;28;20178;-69
2021/11/29 01:57:48;;;;;;;21.00;11.63;;;3.10;99.90;;;;;;5015457;28;20175;-71
2021/11/29 02:00:18;;;;;;;13.07;11.73;;;3.10;99.90;;;;;;5029519;28;20782;-71
2021/11/29 02:02:48;;;;;;;16.97;12.33;;;3.10;99.90;;;;;;5013657;28;20434;-70
2021/11/29 02:05:14;;;;;;;15.63;11.97;;;3.10;99.90;;;;;;5012987;28;20493;-70
2021/11/29 02:07:41;;;;;;;20.80;11.87;;;3.00;99.90;;;;;;5012012;28;20417;-70
2021/11/29 02:10:08;;;;;;;16.93;12.40;;;3.00;99.90;;;;;;5013429;28;20434;-71
2021/11/29 02:12:33;;;;;;;14.30;11.70;;;3.00;99.90;;;;;;5013517;28;20458;-70
2021/11/29 02:14:59;;;;;;;13.90;11.73;;;3.00;99.90;;;;;;5013685;28;20537;-70
2021/11/29 02:17:25;;;;;;;16.13;12.17;;;3.00;99.90;;;;;;5014080;28;21014;-71
2021/11/29 02:19:52;;;;;;;15.20;11.97;;;2.90;99.90;;;;;;5013554;28;20227;-70
2021/11/29 02:22:18;;;;;;;13.00;11.10;;;2.90;99.90;;;;;;5013461;28;20709;-69
2021/11/29 02:24:44;;;;;;;18.57;11.83;;;2.80;99.90;;;;;;5014566;28;20941;-70
2021/11/29 02:27:10;;;;;;;17.93;12.20;;;2.70;99.90;;;;;;5026790;28;20410;-71
2021/11/29 02:29:37;;;;;;;12.83;11.50;;;2.70;99.90;;;;;;4995579;28;20173;-70
2021/11/29 02:32:03;;;;;;;20.23;10.63;;;2.80;99.90;;;;;;5013080;28;20543;-70
2021/11/29 02:34:31;;;;;;;11.90;10.33;;;2.80;99.90;;;;;;5013536;28;20838;-70
2021/11/29 02:36:59;;;;;;;12.03;10.40;;;2.80;99.90;;;;;;5013246;28;20406;-69
2021/11/29 02:39:26;;;;;;;11.43;10.23;;;2.90;99.90;;;;;;5013164;28;20501;-69
2021/11/29 02:41:54;;;;;;;12.90;10.30;;;2.90;99.90;;;;;;5023159;28;20448;-71
2021/11/29 02:44:20;;;;;;;16.00;11.10;;;2.90;99.90;;;;;;5032434;28;20405;-71
2021/11/29 02:46:46;;;;;;;10.93;9.70;;;2.80;99.90;;;;;;5031859;28;20413;-70
2021/11/29 02:49:13;;;;;;;12.10;10.00;;;2.90;99.90;;;;;;5032322;28;20179;-71
2021/11/29 02:51:53;;;;;;;10.97;9.87;;;3.00;99.90;;;;;;5032770;28;20409;-70
2021/11/29 02:54:28;;;;;;;10.60;9.50;;;2.90;99.90;;;;;;5032387;28;20467;-69
2021/11/29 02:57:06;;;;;;;11.50;9.73;;;2.90;99.90;;;;;;4992780;28;20501;-71
2021/11/29 02:59:34;;;;;;;11.83;9.30;;;2.90;99.90;;;;;;4993285;28;20432;-71
2021/11/29 03:02:03;;;;;;;13.80;10.20;;;2.70;99.90;;;;;;4975860;28;20423;-70
2021/11/29 03:04:30;;;;;;;10.47;9.50;;;2.80;99.90;;;;;;4992958;28;20407;-71
2021/11/29 03:06:57;;;;;;;12.30;9.13;;;2.70;99.90;;;;;;4992750;28;20924;-70
2021/11/29 03:09:24;;;;;;;12.30;9.77;;;2.80;99.90;;;;;;4992978;28;20776;-70
2021/11/29 03:11:50;;;;;;;11.50;9.50;;;2.90;99.90;;;;;;5005686;28;20473;-70
2021/11/29 03:14:16;;;;;;;13.53;9.70;;;2.90;99.90;;;;;;5012484;28;20419;-70
2021/11/29 03:16:42;;;;;;;12.30;9.17;;;3.00;99.90;;;;;;5011559;28;20951;-71
2021/11/29 03:19:08;;;;;;;15.63;10.90;;;2.90;99.90;;;;;;5012394;28;20453;-71
2021/11/29 03:21:34;;;;;;;12.50;9.40;;;2.90;99.90;;;;;;5012217;28;20411;-69
2021/11/29 03:24:04;;;;;;;12.10;9.43;;;3.00;99.90;;;;;;5016698;28;20411;-70
2021/11/29 03:26:31;;;;;;;9.57;8.57;;;3.00;99.90;;;;;;5012093;28;20417;-71
2021/11/29 03:29:07;;;;;;;9.77;8.77;;;3.00;99.90;;;;;;5030519;28;20425;-70
2021/11/29 03:31:34;;;;;;;13.53;9.63;;;3.00;99.90;;;;;;5035013;28;20394;-70
2021/11/29 03:34:02;;;;;;;10.10;8.40;;;3.00;99.90;;;;;;5032134;28;20414;-71
2021/11/29 03:36:30;;;;;;;13.10;9.00;;;2.90;99.90;;;;;;5031555;28;20413;-71
2021/11/29 03:38:57;;;;;;;13.07;9.57;;;2.90;99.90;;;;;;5031420;28;20413;-71
2021/11/29 03:41:23;;;;;;;12.70;9.53;;;2.90;99.90;;;;;;5031564;28;20497;-71
2021/11/29 03:43:49;;;;;;;11.10;9.40;;;2.90;99.90;;;;;;5026734;28;20532;-71
2021/11/29 03:46:15;;;;;;;10.47;9.40;;;2.90;99.90;;;;;;5011043;28;20940;-70
2021/11/29 03:48:41;;;;;;;11.63;8.70;;;2.90;99.90;;;;;;5010813;28;20180;-71
2021/11/29 03:51:06;;;;;;;10.27;9.17;;;2.90;99.90;;;;;;5011960;28;20229;-71
2021/11/29 03:53:32;;;;;;;10.40;9.37;;;2.90;99.90;;;;;;5011819;28;20435;-71
2021/11/29 03:55:58;;;;;;;12.00;9.50;;;2.80;99.90;;;;;;5011839;28;20182;-71
2021/11/29 03:58:24;;;;;;;10.97;9.97;;;2.70;99.90;;;;;;5012087;28;20180;-70
2021/11/29 04:00:50;;;;;;;13.27;10.20;;;2.70;99.90;;;;;;5013781;28;20199;-71
2021/11/29 04:03:16;;;;;;;11.60;9.60;;;2.70;99.90;;;;;;5013341;28;20442;-70
2021/11/29 04:05:41;;;;;;;11.47;10.30;;;2.60;99.90;;;;;;5013192;28;20678;-71
2021/11/29 04:08:07;;;;;;;15.57;8.97;;;2.50;99.90;;;;;;5013315;28;20567;-71
2021/11/29 04:10:33;;;;;;;9.37;8.37;;;2.50;99.90;;;;;;5029731;28;20175;-70
2021/11/29 04:12:59;;;;;;;11.00;9.17;;;2.60;99.90;;;;;;5016172;28;20187;-70
2021/11/29 04:15:24;;;;;;;11.30;9.90;;;2.60;99.90;;;;;;5010689;28;20750;-71
2021/11/29 04:17:50;;;;;;;11.50;8.90;;;2.70;99.90;;;;;;5012509;28;20179;-71
2021/11/29 04:20:16;;;;;;;12.27;8.63;;;2.70;99.90;;;;;;5011707;28;20214;-71
2021/11/29 04:22:46;;;;;;;9.60;8.73;;;2.70;99.90;;;;;;5011909;28;20283;-71
2021/11/29 04:25:16;;;;;;;9.70;8.00;;;2.70;99.90;;;;;;5013568;28;20450;-70
2021/11/29 04:27:43;;;;;;;10.33;8.30;;;2.80;99.90;;;;;;5020163;28;20407;-71
2021/11/29 04:30:13;;;;;;;12.20;9.07;;;2.80;99.90;;;;;;5015231;28;20421;-70
2021/11/29 04:32:40;;;;;;;12.13;8.47;;;2.70;99.90;;;;;;5015450;28;20454;-70
2021/11/29 04:35:06;;;;;;;8.90;8.00;;;2.80;99.90;;;;;;5015536;28;20418;-70
2021/11/29 04:37:32;;;;;;;10.20;9.10;;;2.70;99.90;;;;;;5013855;28;20425;-71
2021/11/29 04:39:58;;;;;;;12.00;8.40;;;2.70;99.90;;;;;;5015186;28;20446;-71
2021/11/29 04:42:23;;;;;;;8.57;7.70;;;2.70;99.90;;;;;;5032655;28;20195;-71
2021/11/29 04:44:49;;;;;;;9.23;8.33;;;2.80;99.90;;;;;;5035040;28;20586;-70
2021/11/29 04:47:15;;;;;;;9.00;8.00;;;2.70;99.90;;;;;;5019814;28;20214;-70
2021/11/29 04:49:40;;;;;;;9.10;8.30;;;2.70;99.90;;;;;;5005945;28;20231;-71
2021/11/29 04:52:06;;;;;;;9.50;8.53;;;2.70;99.90;;;;;;5005340;28;20214;-71
2021/11/29 04:54:32;;;;;;;9.03;8.10;;;2.70;99.90;;;;;;5008942;28;20180;-70
2021/11/29 04:56:57;;;;;;;11.17;7.50;;;2.80;99.90;;;;;;5013679;28;20414;-70
2021/11/29 04:59:23;;;;;;;10.60;8.30;;;2.80;99.90;;;;;;5007088;28;20201;-71
2021/11/29 05:01:48;;;;;;;10.10;8.53;;;2.70;99.90;;;;;;5002049;28;20276;-71
2021/11/29 05:04:14;;;;;;;11.13;9.03;;;2.70;99.90;;;;;;4996136;28;20167;-72
2021/11/29 05:06:40;;;;;;;9.90;8.67;;;2.80;99.90;;;;;;5018365;28;20214;-69
2021/11/29 05:09:06;;;;;;;9.40;8.40;;;2.90;99.90;;;;;;5023843;28;20208;-70
2021/11/29 05:11:32;;;;;;;9.43;8.50;;;3.00;99.90;;;;;;5017699;28;20594;-68
2021/11/29 05:13:58;;;;;;;10.70;8.60;;;3.00;99.90;;;;;;5025204;28;20443;-69
2021/11/29 05:16:23;;;;;;;9.80;8.80;;;3.00;99.90;;;;;;5030714;28;20522;-71
2021/11/29 05:18:49;;;;;;;9.63;8.63;;;2.90;99.90;;;;;;5008227;28;20208;-71
2021/11/29 05:21:15;;;;;;;13.00;10.10;;;3.00;99.90;;;;;;5012612;28;20720;-71
2021/11/29 05:23:40;;;;;;;12.23;10.17;;;3.10;99.90;;;;;;5014152;28;20601;-70
2021/11/29 05:26:06;;;;;;;13.80;10.33;;;3.10;99.90;;;;;;5013794;28;20621;-71
2021/11/29 05:28:31;;;;;;;14.37;9.53;;;3.10;99.90;;;;;;5009823;28;20568;-70
2021/11/29 05:30:57;;;;;;;11.50;9.87;;;3.10;99.90;;;;;;5002489;28;20224;-70
2021/11/29 05:33:23;;;;;;;10.33;9.07;;;3.20;99.90;;;;;;4992863;28;20216;-70
2021/11/29 05:35:49;;;;;;;12.73;9.70;;;3.20;99.90;;;;;;4992749;28;20810;-70
2021/11/29 05:38:14;;;;;;;14.10;10.67;;;3.10;99.90;;;;;;5003880;28;20197;-70
2021/11/29 05:40:40;;;;;;;11.93;10.57;;;3.20;99.90;;;;;;5012258;28;20286;-71
2021/11/29 05:43:06;;;;;;;11.23;9.87;;;3.20;99.90;;;;;;5013570;28;20672;-70
2021/11/29 05:45:31;;;;;;;11.53;10.10;;;3.20;99.90;;;;;;5013022;28;20207;-70
2021/11/29 05:47:57;;;;;;;10.57;9.47;;;3.20;99.90;;;;;;5013032;28;20725;-70
2021/11/29 05:50:23;;;;;;;12.03;10.67;;;3.20;99.90;;;;;;5020148;28;20199;-71
2021/11/29 05:52:49;;;;;;;10.50;9.50;;;3.30;99.90;;;;;;5015060;28;20238;-71
2021/11/29 05:55:16;;;;;;;10.70;9.60;;;3.30;99.90;;;;;;5033124;28;20188;-71
2021/11/29 05:57:42;;;;;;;11.43;9.77;;;3.30;99.90;;;;;;5032668;28;20526;-70
2021/11/29 06:00:12;;;;;;;11.90;10.70;;;3.30;99.90;;;;;;5020766;28;20487;-71
2021/11/29 06:02:39;;;;;;;13.83;10.37;;;3.30;99.90;;;;;;5012313;28;20442;-70
2021/11/29 06:05:05;;;;;;;11.13;9.20;;;3.30;99.90;;;;;;5013372;28;20435;-71
2021/11/29 06:07:31;;;;;;;11.53;10.00;;;3.20;99.90;;;;;;5013163;28;20791;-71
2021/11/29 06:09:57;;;;;;;16.77;9.60;;;3.20;99.90;;;;;;5014271;28;20510;-71
2021/11/29 06:12:22;;;;;;;9.03;8.13;;;3.30;99.90;;;;;;5012913;28;20223;-70
2021/11/29 06:14:48;;;;;;;9.83;7.77;;;3.30;99.90;;;;;;5013212;28;20231;-71
2021/11/29 06:17:13;;;;;;;9.47;8.53;;;3.20;99.90;;;;;;5012676;28;20266;-72
2021/11/29 06:19:39;;;;;;;9.50;8.50;;;3.20;99.90;;;;;;5013701;28;20266;-70
2021/11/29 06:22:05;;;;;;;8.40;7.60;;;3.10;99.90;;;;;;5015462;28;20224;-71
2021/11/29 06:24:30;;;;;;;9.93;8.63;;;3.00;99.90;;;;;;5014316;28;20279;-71
2021/11/29 06:26:56;;;;;;;9.10;7.87;;;3.10;99.90;;;;;;5014201;28;20209;-72
2021/11/29 06:29:21;;;;;;;9.13;8.33;;;3.00;99.90;;;;;;4999124;28;20204;-71
2021/11/29 06:31:48;;;;;;;9.70;8.90;;;3.10;99.90;;;;;;5030034;28;20578;-71
2021/11/29 06:34:14;;;;;;;12.47;9.20;;;3.20;99.90;;;;;;5026936;28;20199;-71
2021/11/29 06:36:39;;;;;;;8.93;8.07;;;3.20;99.90;;;;;;5028043;28;20442;-69
2021/11/29 06:39:05;;;;;;;10.20;9.30;;;3.20;99.90;;;;;;5020934;28;20650;-71
2021/11/29 06:41:31;;;;;;;11.10;9.50;;;3.20;99.90;;;;;;5022724;28;20196;-74
2021/11/29 06:43:58;;;;;;;9.93;8.93;;;3.30;99.90;;;;;;5056685;22;20865;-69
2021/11/29 06:46:23;;;;;;;10.67;9.67;;;3.30;99.90;;;;;;5040658;28;20689;-69
2021/11/29 06:48:49;;;;;;;14.07;10.03;;;3.40;99.90;;;;;;5031800;28;20437;-69
2021/11/29 06:51:16;;;;;;;9.27;8.50;;;3.40;99.90;;;;;;5031398;28;20207;-69
2021/11/29 06:53:42;;;;;;;8.93;8.13;;;3.40;99.90;;;;;;5047990;28;20644;-69
2021/11/29 06:56:08;;;;;;;9.07;8.17;;;3.40;99.90;;;;;;5034489;28;20441;-70
2021/11/29 06:58:36;;;;;;;9.60;8.57;;;3.40;99.90;;;;;;5052696;28;20966;-69
2021/11/29 07:01:02;;;;;;;10.50;8.90;;;3.40;99.90;;;;;;5052910;28;20191;-69
2021/11/29 07:03:28;;;;;;;11.50;8.50;;;3.40;99.90;;;;;;5035899;28;20508;-69
2021/11/29 07:05:53;;;;;;;8.97;8.10;;;3.40;99.90;;;;;;5052657;28;20886;-69
2021/11/29 07:08:19;;;;;;;10.03;9.03;;;3.40;99.90;;;;;;5052638;28;20536;-69
2021/11/29 07:10:47;;;;;;;11.73;7.60;;;3.40;99.90;;;;;;5034926;28;20202;-69
2021/11/29 07:13:14;;;;;;;11.10;8.50;;;3.40;99.90;;;;;;5034484;28;20652;-69
2021/11/29 07:15:40;;;;;;;9.60;8.50;;;3.40;99.90;;;;;;5051196;28;20414;-69
2021/11/29 07:18:07;;;;;;;9.20;8.40;;;3.40;99.90;;;;;;5053315;28;20788;-69
2021/11/29 07:20:33;;;;;;;10.13;9.03;;;3.40;99.90;;;;;;5052444;28;20803;-69
2021/11/29 07:23:00;;;;;;;11.70;10.53;;;3.40;99.90;;;;;;5052667;28;20444;-69
2021/11/29 07:25:26;;;;;;;11.83;9.90;;;3.30;99.90;;;;;;5051841;28;20449;-69
2021/11/29 07:27:52;;;;;;;10.30;9.33;;;3.30;99.90;;;;;;5052308;28;20401;-69
2021/11/29 07:30:21;;;;;;;9.70;8.80;;;3.20;99.90;;;;;;5051030;28;20420;-69
2021/11/29 07:32:46;;;;;;;9.90;8.80;;;3.20;99.90;;;;;;5052386;28;20905;-69
2021/11/29 07:35:12;;;;;;;9.60;8.70;;;3.30;99.90;;;;;;5051844;28;20432;-69
2021/11/29 07:37:40;;;;;;;9.83;8.93;;;3.40;99.90;;;;;;5050381;28;20173;-69
2021/11/29 07:40:07;;;;;;;10.10;9.17;;;3.30;99.90;;;;;;5052140;28;20536;-69
2021/11/29 07:42:33;;;;;;;10.30;9.20;;;3.30;99.90;;;;;;5052070;28;20408;-69
2021/11/29 07:44:59;;;;;;;9.63;8.70;;;3.30;99.90;;;;;;5051908;28;20442;-69
2021/11/29 07:47:25;;;;;;;9.53;8.70;;;3.30;99.90;;;;;;5051456;28;20429;-68
2021/11/29 07:49:52;;;;;;;10.10;8.80;;;3.40;99.90;;;;;;5050704;28;20179;-69
2021/11/29 07:52:18;;;;;;;9.33;8.43;;;3.40;99.90;;;;;;5052149;28;20454;-68
2021/11/29 07:54:44;;;;;;;8.33;7.57;;;3.50;99.90;;;;;;5052276;28;20426;-68
2021/11/29 07:57:12;;;;;;;9.50;8.47;;;3.50;99.90;;;;;;5048913;28;20198;-68
2021/11/29 07:59:39;;;;;;;9.20;8.27;;;3.50;99.90;;;;;;5052514;28;20527;-68
2021/11/29 08:02:05;;;;;;;10.13;8.87;;;3.60;99.90;;;;;;5052399;28;20788;-70
2021/11/29 08:04:30;;;;;;;8.83;8.03;;;3.60;99.90;;;;;;5051577;28;20441;-69
2021/11/29 08:06:56;;;;;;;8.50;7.70;;;3.60;99.90;;;;;;5051052;28;20988;-69
2021/11/29 08:09:21;;;;;;;10.30;9.20;;;3.50;99.90;;;;;;5051781;28;20206;-69
2021/11/29 08:11:47;;;;;;;8.17;7.37;;;3.40;99.90;;;;;;5051985;28;20228;-68
2021/11/29 08:14:13;;;;;;;9.30;7.73;;;3.40;99.90;;;;;;5052057;28;20201;-69
2021/11/29 08:16:38;;;;;;;9.10;8.20;;;3.40;99.90;;;;;;5051761;28;20262;-68
2021/11/29 08:19:04;;;;;;;8.53;7.70;;;3.40;99.90;;;;;;5051903;28;20238;-69
2021/11/29 08:21:30;;;;;;;10.03;8.00;;;3.50;99.90;;;;;;5052227;28;20175;-68
2021/11/29 08:23:55;;;;;;;9.20;8.27;;;3.60;99.90;;;;;;5052605;28;20191;-68
2021/11/29 08:26:21;;;;;;;8.90;8.00;;;3.60;99.90;;;;;;5052718;28;20207;-69
2021/11/29 08:28:47;;;;;;;8.63;7.50;;;3.60;99.90;;;;;;5052384;28;20197;-69
2021/11/29 08:31:12;;;;;;;8.00;7.20;;;3.60;99.90;;;;;;5052828;28;20897;-68
2021/11/29 08:33:38;;;;;;;8.10;6.90;;;3.60;99.90;;;;;;5051778;28;20208;-70
2021/11/29 08:36:04;;;;;;;7.73;6.97;;;3.60;99.90;;;;;;5051135;28;20208;-70
2021/11/29 08:38:32;;;;;;;7.37;6.53;;;3.60;99.90;;;;;;5052166;28;20200;-70
2021/11/29 08:40:58;;;;;;;7.53;6.73;;;3.70;99.90;;;;;;5053340;28;20457;-69
2021/11/29 08:43:23;;;;;;;9.67;7.00;;;3.60;99.90;;;;;;5052893;28;20898;-69
2021/11/29 08:45:50;;;;;;;6.47;5.50;;;3.60;99.90;;;;;;5052219;28;20180;-70
2021/11/29 08:48:17;;;;;;;7.60;6.43;;;3.60;99.90;;;;;;5051409;28;20257;-70
2021/11/29 08:50:45;;;;;;;6.50;5.90;;;3.50;99.90;;;;;;5051784;28;20437;-69
2021/11/29 08:53:14;;;;;;;6.63;5.90;;;3.50;99.90;;;;;;5051397;28;20420;-69
2021/11/29 08:55:40;;;;;;;7.83;6.63;;;3.50;99.90;;;;;;5051455;28;20760;-70
2021/11/29 08:58:08;;;;;;;7.80;5.43;;;3.60;99.90;;;;;;5051431;28;20450;-70
2021/11/29 09:00:35;;;;;;;6.43;5.73;;;3.60;99.90;;;;;;5051329;28;20258;-70
2021/11/29 09:03:04;;;;;;;6.93;6.33;;;3.70;99.90;;;;;;5050878;28;20436;-70
2021/11/29 09:05:29;;;;;;;6.40;5.80;;;3.70;99.90;;;;;;5051725;28;20436;-69
2021/11/29 09:07:55;;;;;;;5.70;5.10;;;3.70;99.90;;;;;;5051390;28;20420;-70
2021/11/29 09:10:22;;;;;;;5.23;4.73;;;3.70;99.90;;;;;;5051520;28;20410;-70
2021/11/29 09:12:48;;;;;;;5.10;4.70;;;3.60;99.90;;;;;;5050899;28;20619;-69
2021/11/29 09:15:14;;;;;;;7.70;5.70;;;3.50;99.90;;;;;;5052562;28;20437;-68
2021/11/29 09:17:40;;;;;;;7.67;5.80;;;3.40;99.90;;;;;;5054619;28;20264;-68
2021/11/29 09:20:08;;;;;;;6.53;5.40;;;3.60;99.90;;;;;;5054900;28;20531;-68
2021/11/29 09:22:34;;;;;;;7.87;5.47;;;3.70;99.90;;;;;;5054514;28;20187;-67
2021/11/29 09:25:00;;;;;;;7.47;5.47;;;3.70;99.90;;;;;;5038017;28;20434;-69
2021/11/29 09:27:27;;;;;;;6.73;5.47;;;3.70;99.90;;;;;;5054489;28;20167;-70
2021/11/29 09:29:53;;;;;;;7.33;5.97;;;3.60;99.90;;;;;;5054883;28;20413;-70
2021/11/29 09:32:19;;;;;;;7.57;5.90;;;3.70;99.90;;;;;;5054705;28;20839;-71
2021/11/29 09:34:47;;;;;;;6.40;5.90;;;3.80;99.90;;;;;;5054571;28;20240;-70
2021/11/29 09:37:13;;;;;;;5.80;5.30;;;3.80;99.90;;;;;;5054336;28;20908;-70
2021/11/29 09:39:39;;;;;;;6.60;6.00;;;3.70;99.90;;;;;;5054776;28;20448;-69
2021/11/29 09:42:05;;;;;;;6.70;5.80;;;3.70;99.90;;;;;;5054329;28;20418;-70
2021/11/29 09:44:30;;;;;;;7.20;5.63;;;3.70;99.90;;;;;;5054344;28;20218;-69
2021/11/29 09:46:56;;;;;;;6.17;5.53;;;3.70;99.90;;;;;;5054888;28;20412;-69
2021/11/29 09:49:23;;;;;;;6.27;5.23;;;3.70;99.90;;;;;;5054187;28;20514;-69
2021/11/29 09:51:49;;;;;;;7.90;6.07;;;3.50;99.90;;;;;;5054027;28;20194;-69
2021/11/29 09:54:15;;;;;;;7.20;6.00;;;3.50;99.90;;;;;;5054202;28;20438;-69
2021/11/29 09:56:40;;;;;;;7.67;6.60;;;3.60;99.90;;;;;;5053837;28;20423;-68
2021/11/29 09:59:06;;;;;;;6.93;6.17;;;3.60;99.90;;;;;;5054033;28;20681;-69
2021/11/29 10:01:32;;;;;;;7.10;6.50;;;3.70;99.90;;;;;;5054109;28;20256;-69
2021/11/29 10:03:58;;;;;;;7.47;6.17;;;3.60;99.90;;;;;;5053875;28;20264;-69
2021/11/29 10:06:24;;;;;;;8.13;7.33;;;3.60;99.90;;;;;;5053758;28;20970;-69
2021/11/29 10:08:50;;;;;;;7.80;7.10;;;3.70;99.90;;;;;;5054096;28;20848;-68
2021/11/29 10:11:18;;;;;;;8.67;7.87;;;3.60;99.90;;;;;;5036178;28;20213;-68
2021/11/29 10:13:55;;;;;;;9.30;6.93;;;3.50;99.90;;;;;;5054207;28;20435;-67
2021/11/29 10:16:38;;;;;;;8.20;7.40;;;3.60;99.90;;;;;;5053363;28;20447;-68
2021/11/29 10:19:07;;;;;;;7.80;6.80;;;3.60;99.90;;;;;;5053979;28;20396;-68
2021/11/29 10:21:33;;;;;;;7.73;6.70;;;3.60;99.90;;;;;;5053651;28;20409;-70
2021/11/29 10:24:00;;;;;;;10.13;7.13;;;3.60;99.90;;;;;;5054299;28;20425;-70
2021/11/29 10:26:32;;;;;;;9.63;7.00;;;3.70;99.90;;;;;;5053169;28;20410;-68
2021/11/29 10:28:59;;;;;;;10.10;9.20;;;3.70;99.90;;;;;;5035529;28;21006;-70
2021/11/29 10:31:38;;;;;;;9.97;8.90;;;3.80;99.90;;;;;;5053288;28;20490;-68
2021/11/29 10:34:06;;;;;;;8.70;7.93;;;3.80;99.90;;;;;;5053266;28;20918;-69
2021/11/29 10:36:41;;;;;;;8.80;7.77;;;3.80;99.90;;;;;;5035445;28;20422;-70
2021/11/29 10:39:13;;;;;;;11.23;8.80;;;3.80;99.90;;;;;;5052928;28;20522;-70
2021/11/29 10:41:42;;;;;;;9.40;8.20;;;3.80;99.90;;;;;;5053669;28;20512;-69
2021/11/29 10:44:19;;;;;;;12.50;8.83;;;3.90;99.90;;;;;;5052962;28;21043;-68
2021/11/29 10:46:49;;;;;;;13.00;9.70;;;4.00;99.90;;;;;;5052657;28;20413;-69
2021/11/29 10:49:17;;;;;;;14.87;10.07;;;4.00;99.90;;;;;;5035471;28;20417;-67
2021/11/29 10:51:49;;;;;;;13.57;10.40;;;4.00;99.90;;;;;;5053169;28;20464;-68
2021/11/29 10:54:18;;;;;;;16.47;11.67;;;4.10;99.90;;;;;;5052895;28;20427;-71
2021/11/29 10:56:45;;;;;;;13.57;11.43;;;4.10;99.90;;;;;;5052720;28;20428;-69
2021/11/29 10:59:17;;;;;;;16.87;12.73;;;4.00;99.90;;;;;;5053255;28;20904;-70
2021/11/29 11:01:54;;;;;;;19.23;14.00;;;4.00;99.90;;;;;;5035146;28;20434;-69
2021/11/29 11:04:29;;;;;;;19.10;12.83;;;4.10;99.90;;;;;;5053206;28;20420;-69
2021/11/29 11:07:03;;;;;;;22.10;13.63;;;4.20;99.90;;;;;;5052451;28;20416;-68
2021/11/29 11:09:37;;;;;;;15.77;13.20;;;4.20;99.90;;;;;;5052751;28;20895;-69
2021/11/29 11:12:09;;;;;;;18.60;14.03;;;4.30;99.90;;;;;;5052830;28;20412;-69
2021/11/29 11:14:36;;;;;;;20.97;13.83;;;4.30;99.90;;;;;;5032529;28;20988;-70
2021/11/29 11:17:10;;;;;;;20.03;14.77;;;4.30;99.90;;;;;;5032572;28;20418;-68
2021/11/29 11:19:49;;;;;;;20.70;15.90;;;4.20;99.90;;;;;;5032712;28;20452;-68
2021/11/29 11:22:25;;;;;;;22.67;15.73;;;4.30;99.90;;;;;;5032893;28;20465;-69
2021/11/29 11:24:57;;;;;;;24.83;17.10;;;4.30;99.90;;;;;;5035236;28;20825;-70
2021/11/29 11:27:25;;;;;;;23.70;17.00;;;4.20;99.90;;;;;;5051906;28;20484;-69
2021/11/29 11:29:52;;;;;;;22.87;17.23;;;4.20;99.90;;;;;;5052273;28;20501;-68
2021/11/29 11:32:22;;;;;;;27.13;18.17;;;4.20;99.90;;;;;;5052364;28;20412;-70
2021/11/29 11:34:51;;;;;;;28.90;17.50;;;4.20;99.90;;;;;;5051769;28;20812;-70
2021/11/29 11:37:19;;;;;;;29.67;20.37;;;4.30;99.90;;;;;;5051396;28;20433;-68
2021/11/29 11:39:47;;;;;;;29.57;18.80;;;4.40;99.90;;;;;;5052561;28;20502;-69
2021/11/29 11:42:13;;;;;;;31.20;18.53;;;4.40;99.90;;;;;;5053220;28;20419;-69
2021/11/29 11:44:40;;;;;;;28.60;18.23;;;4.40;99.90;;;;;;5052377;28;20449;-69
2021/11/29 11:47:07;;;;;;;28.30;19.30;;;4.40;99.90;;;;;;5052084;28;20412;-68
2021/11/29 11:49:36;;;;;;;29.43;19.30;;;4.40;99.90;;;;;;5052726;28;20424;-70
2021/11/29 11:52:02;;;;;;;33.77;20.90;;;4.50;99.90;;;;;;5053240;28;20765;-69
2021/11/29 11:54:28;;;;;;;35.70;20.40;;;4.40;99.90;;;;;;5052659;28;20434;-68
2021/11/29 11:56:53;;;;;;;26.60;19.33;;;4.50;99.90;;;;;;5035866;28;20832;-68
2021/11/29 11:59:22;;;;;;;31.43;20.90;;;4.40;99.90;;;;;;5052231;28;20416;-68
2021/11/29 12:01:50;;;;;;;30.10;21.00;;;4.40;99.90;;;;;;5052231;28;20164;-69
2021/11/29 12:04:18;;;;;;;31.57;21.27;;;4.40;99.90;;;;;;5052368;28;20444;-69
2021/11/29 12:06:48;;;;;;;35.93;20.17;;;4.40;99.90;;;;;;5051701;28;20525;-69
2021/11/29 12:09:14;;;;;;;33.90;21.47;;;4.40;99.90;;;;;;5053017;28;20466;-69
2021/11/29 12:11:50;;;;;;;28.43;20.80;;;4.40;99.90;;;;;;5052805;28;20411;-69
2021/11/29 12:14:22;;;;;;;31.40;20.37;;;4.50;99.90;;;;;;5052618;28;20192;-70
2021/11/29 12:17:22;;;;;;;31.80;21.30;;;4.60;99.90;;;;;;5034415;28;20509;-69
2021/11/29 12:19:48;;;;;;;26.30;19.87;;;4.70;99.90;;;;;;5052567;28;20454;-70
2021/11/29 12:22:16;;;;;;;31.53;21.50;;;4.80;99.90;;;;;;5052756;28;20422;-69
2021/11/29 12:24:46;;;;;;;30.73;21.57;;;4.80;99.90;;;;;;5052374;28;20200;-69
2021/11/29 12:27:13;;;;;;;30.40;20.80;;;4.80;99.90;;;;;;5052380;28;20401;-69
2021/11/29 12:29:39;;;;;;;28.50;20.67;;;4.90;99.90;;;;;;5052475;28;20420;-70
2021/11/29 12:32:05;;;;;;;33.63;21.53;;;5.00;99.90;;;;;;5052769;28;20404;-68
2021/11/29 12:34:52;;;;;;;35.53;21.50;;;5.00;99.90;;;;;;5051394;28;20194;-68
2021/11/29 12:37:19;;;;;;;28.90;20.43;;;5.10;99.90;;;;;;5051913;28;20245;-69
2021/11/29 12:39:47;;;;;;;27.33;19.63;;;5.00;99.90;;;;;;5050682;28;20483;-70
2021/11/29 12:42:27;;;;;;;30.60;20.33;;;4.90;99.90;;;;;;5052400;28;20936;-70
2021/11/29 12:44:54;;;;;;;29.97;21.17;;;4.70;99.90;;;;;;5074731;22;20502;-70